createdAt,value
2022-12-24T00:02:10.806Z,4.07
2022-12-24T00:05:00.818Z,6.00
2022-12-24T00:07:46.879Z,4.47
2022-12-24T00:10:32.438Z,4.25
2022-12-24T00:13:18.013Z,6.60
2022-12-24T00:16:04.308Z,5.28
2022-12-24T00:18:50.063Z,4.65
2022-12-24T00:21:35.729Z,3.92
2022-12-24T00:24:21.571Z,3.97
2022-12-24T00:27:07.061Z,5.20
2022-12-24T00:29:52.651Z,4.32
2022-12-24T00:32:38.774Z,3.17
2022-12-24T00:35:24.506Z,4.05
2022-12-24T00:38:10.026Z,4.82
2022-12-24T00:41:03.315Z,5.27
2022-12-24T00:43:48.689Z,4.55
2022-12-24T00:46:35.409Z,4.90
2022-12-24T00:49:21.117Z,5.45
2022-12-24T00:52:06.642Z,5.93
2022-12-24T00:54:52.309Z,4.37
2022-12-24T00:57:38.105Z,4.88
2022-12-24T01:00:23.604Z,4.82
2022-12-24T01:03:09.332Z,4.50
2022-12-24T01:05:54.591Z,4.73
2022-12-24T01:08:41.041Z,5.32
2022-12-24T01:11:26.474Z,5.20
2022-12-24T01:14:12.211Z,6.20
2022-12-24T01:16:58.013Z,3.53
2022-12-24T01:19:43.417Z,5.85
2022-12-24T01:22:28.937Z,5.10
2022-12-24T01:25:15.171Z,5.60
2022-12-24T01:28:00.861Z,5.15
2022-12-24T01:30:46.916Z,6.45
2022-12-24T01:33:32.313Z,4.32
2022-12-24T01:36:17.972Z,7.80
2022-12-24T01:39:04.114Z,5.07
2022-12-24T01:42:08.181Z,6.90
2022-12-24T01:44:54.453Z,6.88
2022-12-24T01:47:40.437Z,8.18
2022-12-24T01:50:26.056Z,8.02
2022-12-24T01:53:14.033Z,5.47
2022-12-24T01:55:59.533Z,6.18
2022-12-24T01:58:48.833Z,9.55
2022-12-24T02:01:34.936Z,7.63
2022-12-24T02:04:40.886Z,7.20
2022-12-24T02:07:26.689Z,9.68
2022-12-24T02:10:15.179Z,8.47
2022-12-24T02:13:02.906Z,11.63
2022-12-24T02:16:00.357Z,7.65
2022-12-24T02:19:08.057Z,7.45
2022-12-24T02:22:11.768Z,8.97
2022-12-24T02:25:00.531Z,10.63
2022-12-24T02:27:49.137Z,13.23
2022-12-24T02:30:48.542Z,12.05
2022-12-24T02:33:57.169Z,9.48
2022-12-24T02:36:58.080Z,9.65
2022-12-24T02:39:52.235Z,9.48
2022-12-24T02:42:42.204Z,11.63
2022-12-24T02:45:36.001Z,13.37
2022-12-24T02:48:23.704Z,9.82
2022-12-24T02:51:10.781Z,10.63
2022-12-24T02:53:56.268Z,13.30
2022-12-24T02:56:44.742Z,10.40
2022-12-24T03:00:05.672Z,10.02
2022-12-24T03:02:55.778Z,9.20
2022-12-24T03:05:47.989Z,9.73
2022-12-24T03:08:35.861Z,11.65
2022-12-24T03:11:21.697Z,11.38
2022-12-24T03:14:07.550Z,11.80
2022-12-24T03:16:53.272Z,9.40
2022-12-24T03:19:39.796Z,10.03
2022-12-24T03:22:27.118Z,12.60
2022-12-24T03:25:12.675Z,11.43
2022-12-24T03:28:01.621Z,15.73
2022-12-24T03:30:48.945Z,15.23
2022-12-24T03:33:34.753Z,12.63
2022-12-24T03:36:20.381Z,14.20
2022-12-24T03:39:06.996Z,13.52
2022-12-24T03:41:52.549Z,13.45
2022-12-24T03:44:38.443Z,11.60
2022-12-24T03:47:23.874Z,13.07
2022-12-24T03:50:09.866Z,10.05
2022-12-24T03:52:56.086Z,12.75
2022-12-24T03:55:41.512Z,11.93
2022-12-24T03:58:27.129Z,16.00
2022-12-24T04:01:12.873Z,13.48
2022-12-24T04:03:58.460Z,16.57
2022-12-24T04:06:44.035Z,13.82
2022-12-24T04:09:29.382Z,17.20
2022-12-24T04:12:14.979Z,12.50
2022-12-24T04:15:00.409Z,12.27
2022-12-24T04:17:45.898Z,11.47
2022-12-24T04:20:31.412Z,14.18
2022-12-24T04:23:16.807Z,12.23
2022-12-24T04:26:03.970Z,15.00
2022-12-24T04:28:49.795Z,15.23
2022-12-24T04:31:35.695Z,12.27
2022-12-24T04:34:21.205Z,14.50
2022-12-24T04:37:06.558Z,13.25
2022-12-24T04:39:51.867Z,13.15
2022-12-24T04:42:37.450Z,13.40
2022-12-24T04:45:23.026Z,14.53
2022-12-24T04:48:08.899Z,16.13
2022-12-24T04:50:54.367Z,14.20
2022-12-24T04:53:40.962Z,15.80
2022-12-24T04:56:28.915Z,11.53
2022-12-24T04:59:14.386Z,13.05
2022-12-24T05:02:00.036Z,12.02
2022-12-24T05:04:45.916Z,13.52
2022-12-24T05:07:31.301Z,15.85
2022-12-24T05:10:16.866Z,15.60
2022-12-24T05:13:02.217Z,15.65
2022-12-24T05:15:47.689Z,16.15
2022-12-24T05:18:33.025Z,17.40
2022-12-24T05:21:21.692Z,13.23
2022-12-24T05:24:25.725Z,15.18
2022-12-24T05:27:11.144Z,14.77
2022-12-24T05:29:56.629Z,13.85
2022-12-24T05:32:42.235Z,14.75
2022-12-24T05:35:27.526Z,14.65
2022-12-24T05:38:13.067Z,15.47
2022-12-24T05:40:58.669Z,11.90
2022-12-24T05:43:44.169Z,12.85
2022-12-24T05:46:30.068Z,14.40
2022-12-24T05:49:15.602Z,14.00
2022-12-24T05:52:01.331Z,14.30
2022-12-24T05:54:46.728Z,10.83
2022-12-24T05:57:32.307Z,15.10
2022-12-24T06:00:18.184Z,17.80
2022-12-24T06:03:03.977Z,12.77
2022-12-24T06:05:49.646Z,11.85
2022-12-24T06:08:36.576Z,13.35
2022-12-24T06:11:24.296Z,15.63
2022-12-24T06:14:12.701Z,12.18
2022-12-24T06:16:58.861Z,12.38
2022-12-24T06:19:44.584Z,10.98
2022-12-24T06:22:30.362Z,10.95
2022-12-24T06:25:16.070Z,11.57
2022-12-24T06:28:01.384Z,10.65
2022-12-24T06:30:49.395Z,8.98
2022-12-24T06:33:35.208Z,11.65
2022-12-24T06:36:23.517Z,9.30
2022-12-24T06:39:09.203Z,8.63
2022-12-24T06:41:55.123Z,8.68
2022-12-24T06:44:40.666Z,8.52
2022-12-24T06:47:26.313Z,8.90
2022-12-24T06:50:12.396Z,9.18
2022-12-24T06:52:57.863Z,7.75
2022-12-24T06:55:43.518Z,6.75
2022-12-24T06:58:29.281Z,8.02
2022-12-24T07:01:17.811Z,7.78
2022-12-24T07:04:03.888Z,7.78
2022-12-24T07:06:49.504Z,8.00
2022-12-24T07:09:35.246Z,5.75
2022-12-24T07:12:20.657Z,6.17
2022-12-24T07:15:07.030Z,8.52
2022-12-24T07:17:52.905Z,7.53
2022-12-24T07:20:38.708Z,8.03
2022-12-24T07:23:24.976Z,6.10
2022-12-24T07:26:10.876Z,5.45
2022-12-24T07:28:56.592Z,7.78
2022-12-24T07:31:42.165Z,7.15
2022-12-24T07:34:27.632Z,5.80
2022-12-24T07:37:13.146Z,5.83
2022-12-24T07:39:59.244Z,5.35
2022-12-24T07:42:44.934Z,6.40
2022-12-24T07:45:30.572Z,5.32
2022-12-24T07:48:16.214Z,4.35
2022-12-24T07:51:02.323Z,5.05
2022-12-24T07:53:48.069Z,6.88
2022-12-24T07:56:33.849Z,5.03
2022-12-24T07:59:19.734Z,6.00
2022-12-24T08:02:05.476Z,5.65
2022-12-24T08:04:51.135Z,4.40
2022-12-24T08:07:36.714Z,5.50
2022-12-24T08:10:22.223Z,6.15
2022-12-24T08:13:08.162Z,5.28
2022-12-24T08:15:54.236Z,4.88
2022-12-24T08:18:39.980Z,5.90
2022-12-24T08:21:25.561Z,4.00
2022-12-24T08:24:11.137Z,5.43
2022-12-24T08:26:56.421Z,5.15
2022-12-24T08:29:42.096Z,4.57
2022-12-24T08:32:27.591Z,6.07
2022-12-24T08:35:14.377Z,4.65
2022-12-24T08:37:59.839Z,4.67
2022-12-24T08:40:48.825Z,4.53
2022-12-24T08:43:34.840Z,5.40
2022-12-24T08:46:20.276Z,5.78
2022-12-24T08:49:05.697Z,4.50
2022-12-24T08:51:51.841Z,7.22
2022-12-24T08:54:37.601Z,5.65
2022-12-24T08:57:23.105Z,4.70
2022-12-24T09:00:09.710Z,4.45
2022-12-24T09:02:56.989Z,4.25
2022-12-24T09:05:43.048Z,5.80
2022-12-24T09:08:29.070Z,2.50
2022-12-24T09:11:17.817Z,4.40
2022-12-24T09:14:03.410Z,4.10
2022-12-24T09:16:49.166Z,4.60
2022-12-24T09:19:35.023Z,3.33
2022-12-24T09:22:21.312Z,3.50
2022-12-24T09:25:08.725Z,3.88
2022-12-24T09:27:54.263Z,5.15
2022-12-24T09:30:39.725Z,4.30
2022-12-24T09:33:25.715Z,3.95
2022-12-24T09:36:11.421Z,5.63
2022-12-24T09:38:56.819Z,5.23
2022-12-24T09:42:03.538Z,5.50
2022-12-24T09:45:12.296Z,3.75
2022-12-24T09:48:02.111Z,4.05
2022-12-24T09:50:50.554Z,2.97
2022-12-24T09:53:39.367Z,5.05
2022-12-24T09:56:30.282Z,6.50
2022-12-24T09:59:24.977Z,4.25
2022-12-24T10:02:14.322Z,3.78
2022-12-24T10:04:59.807Z,7.10
2022-12-24T10:07:58.093Z,4.68
2022-12-24T10:11:19.688Z,4.40
2022-12-24T10:14:17.124Z,4.43
2022-12-24T10:17:44.652Z,4.32
2022-12-24T10:20:42.469Z,4.25
2022-12-24T10:23:42.685Z,3.87
2022-12-24T10:26:38.908Z,3.72
2022-12-24T10:29:29.901Z,2.95
2022-12-24T10:32:30.002Z,3.85
2022-12-24T10:35:15.858Z,4.38
2022-12-24T10:38:02.316Z,3.47
2022-12-24T10:40:51.675Z,4.03
2022-12-24T10:43:42.135Z,4.88
2022-12-24T10:46:38.938Z,4.55
2022-12-24T10:49:33.781Z,5.90
2022-12-24T10:52:22.328Z,3.70
2022-12-24T10:55:21.201Z,4.13
2022-12-24T10:58:13.326Z,4.70
2022-12-24T11:00:59.014Z,4.35
2022-12-24T11:03:45.039Z,5.10
2022-12-24T11:06:31.147Z,3.28
2022-12-24T11:09:32.511Z,5.30
2022-12-24T11:12:23.030Z,5.68
2022-12-24T11:15:24.463Z,4.35
2022-12-24T11:18:15.085Z,4.43
2022-12-24T11:21:01.285Z,5.25
2022-12-24T11:23:55.685Z,4.40
2022-12-24T11:26:43.305Z,6.40
2022-12-24T11:29:29.222Z,5.63
2022-12-24T11:32:19.949Z,4.67
2022-12-24T11:35:17.744Z,4.88
2022-12-24T11:38:03.408Z,6.60
2022-12-24T11:40:58.443Z,4.70
2022-12-24T11:43:46.884Z,3.30
2022-12-24T11:46:52.417Z,6.97
2022-12-24T11:49:38.194Z,4.70
2022-12-24T11:52:25.618Z,5.97
2022-12-24T11:55:18.497Z,8.97
2022-12-24T11:58:16.452Z,5.18
2022-12-24T12:01:21.038Z,5.43
2022-12-24T12:04:22.166Z,6.20
2022-12-24T12:07:15.769Z,6.45
2022-12-24T12:10:06.317Z,4.28
2022-12-24T12:13:14.940Z,7.22
2022-12-24T12:16:55.515Z,3.72
2022-12-24T12:19:49.021Z,3.78
2022-12-24T12:23:00.813Z,7.75
2022-12-24T12:25:46.276Z,4.90
2022-12-24T12:29:01.459Z,4.32
2022-12-24T12:31:51.387Z,3.67
2022-12-24T12:35:04.226Z,3.60
2022-12-24T12:38:00.599Z,2.75
2022-12-24T12:41:01.206Z,4.68
2022-12-24T12:44:41.810Z,3.72
2022-12-24T12:47:45.859Z,3.97
2022-12-24T12:50:48.478Z,4.60
2022-12-24T12:53:43.160Z,4.95
2022-12-24T12:56:37.130Z,5.03
2022-12-24T12:59:44.895Z,5.28
2022-12-24T13:02:33.851Z,3.93
2022-12-24T13:05:38.069Z,3.67
2022-12-24T13:08:27.551Z,4.47
2022-12-24T13:11:28.249Z,4.43
2022-12-24T13:14:37.186Z,10.00
2022-12-24T13:17:47.128Z,23.88
2022-12-24T13:20:36.973Z,33.08
2022-12-24T13:23:25.708Z,33.83
2022-12-24T13:26:13.817Z,33.50
2022-12-24T13:29:36.604Z,32.75
2022-12-24T13:32:22.416Z,216.68
2022-12-24T13:35:19.961Z,184.95
2022-12-24T13:38:44.493Z,169.10
2022-12-24T13:41:41.413Z,160.23
2022-12-24T13:44:33.063Z,155.93
2022-12-24T13:47:31.639Z,144.00
2022-12-24T13:50:52.648Z,141.73
2022-12-24T13:53:46.089Z,138.27
2022-12-24T13:56:32.169Z,139.30
2022-12-24T13:59:38.361Z,136.80
2022-12-24T14:02:25.989Z,121.13
2022-12-24T14:05:23.136Z,126.47
2022-12-24T14:08:32.058Z,126.88
2022-12-24T14:11:18.873Z,125.82
2022-12-24T14:14:04.611Z,118.35
2022-12-24T14:16:52.716Z,117.80
2022-12-24T14:19:48.472Z,119.22
2022-12-24T14:22:42.500Z,118.13
2022-12-24T14:25:28.503Z,118.20
2022-12-24T14:28:22.024Z,117.07
2022-12-24T14:31:15.556Z,116.45
2022-12-24T14:34:11.961Z,115.10
2022-12-24T14:37:03.293Z,114.18
2022-12-24T14:39:56.777Z,108.95
2022-12-24T14:43:06.604Z,107.68
2022-12-24T14:46:10.079Z,108.57
2022-12-24T14:49:04.288Z,106.85
2022-12-24T14:52:18.414Z,101.47
2022-12-24T14:55:31.535Z,105.03
2022-12-24T14:58:52.783Z,100.93
2022-12-24T15:01:38.406Z,99.18
2022-12-24T15:04:23.754Z,100.72
2022-12-24T15:07:12.034Z,98.25
2022-12-24T15:09:57.449Z,96.55
2022-12-24T15:12:43.772Z,98.57
2022-12-24T15:15:29.379Z,97.68
2022-12-24T15:18:19.042Z,95.35
2022-12-24T15:21:07.820Z,90.22
2022-12-24T15:23:53.276Z,92.50
2022-12-24T15:26:45.012Z,90.65
2022-12-24T15:29:33.106Z,92.03
2022-12-24T15:32:20.925Z,91.03
2022-12-24T15:35:06.946Z,86.72
2022-12-24T15:37:52.770Z,90.38
2022-12-24T15:40:38.275Z,89.20
2022-12-24T15:43:25.162Z,89.57
2022-12-24T15:46:17.502Z,91.43
2022-12-24T15:49:03.706Z,91.18
2022-12-24T15:51:49.352Z,90.95
2022-12-24T15:54:35.382Z,93.82
2022-12-24T15:57:31.966Z,90.75
2022-12-24T16:00:24.124Z,91.97
2022-12-24T16:03:20.772Z,93.70
2022-12-24T16:06:11.823Z,93.53
2022-12-24T16:08:57.309Z,91.70
2022-12-24T16:11:43.089Z,94.03
2022-12-24T16:14:29.775Z,92.37
2022-12-24T16:17:27.767Z,90.50
2022-12-24T16:20:21.140Z,87.93
2022-12-24T16:23:19.538Z,87.78
2022-12-24T16:26:05.310Z,85.43
2022-12-24T16:28:51.068Z,83.40
2022-12-24T16:31:51.813Z,84.50
2022-12-24T16:34:37.360Z,83.65
2022-12-24T16:37:22.847Z,82.80
2022-12-24T16:40:19.323Z,78.40
2022-12-24T16:43:27.188Z,77.85
2022-12-24T16:46:13.656Z,77.50
2022-12-24T16:48:59.419Z,74.93
2022-12-24T16:51:45.577Z,73.10
2022-12-24T16:54:31.501Z,75.22
2022-12-24T16:57:17.893Z,74.22
2022-12-24T17:00:07.828Z,72.00
2022-12-24T17:02:53.790Z,70.78
2022-12-24T17:05:44.023Z,68.88
2022-12-24T17:08:29.477Z,68.97
2022-12-24T17:11:15.228Z,68.90
2022-12-24T17:14:07.877Z,69.43
2022-12-24T17:16:54.325Z,67.15
2022-12-24T17:19:41.140Z,64.93
2022-12-24T17:22:27.656Z,64.20
2022-12-24T17:25:14.204Z,63.50
2022-12-24T17:28:00.108Z,62.20
2022-12-24T17:30:45.659Z,61.28
2022-12-24T17:33:31.377Z,58.93
2022-12-24T17:36:17.555Z,59.60
2022-12-24T17:39:03.879Z,58.60
2022-12-24T17:41:49.381Z,58.35
2022-12-24T17:44:34.937Z,57.72
2022-12-24T17:47:20.919Z,56.80
2022-12-24T17:50:06.997Z,57.60
2022-12-24T17:52:52.738Z,55.83
2022-12-24T17:55:44.561Z,55.70
2022-12-24T17:58:30.839Z,56.00
2022-12-24T18:01:21.814Z,54.35
2022-12-24T18:04:07.762Z,53.67
2022-12-24T18:06:59.669Z,54.70
2022-12-24T18:09:47.943Z,54.58
2022-12-24T18:12:33.596Z,53.33
2022-12-24T18:15:20.464Z,51.40
2022-12-24T18:18:07.374Z,50.83
2022-12-24T18:20:52.837Z,50.50
2022-12-24T18:23:38.342Z,50.67
2022-12-24T18:26:26.727Z,50.43
2022-12-24T18:29:13.077Z,48.13
2022-12-24T18:31:58.546Z,50.10
2022-12-24T18:34:44.719Z,48.93
2022-12-24T18:37:30.625Z,49.65
2022-12-24T18:40:18.077Z,48.25
2022-12-24T18:43:04.568Z,49.78
2022-12-24T18:45:50.505Z,47.78
2022-12-24T18:48:36.138Z,47.45
2022-12-24T18:51:24.012Z,47.37
2022-12-24T18:54:09.493Z,46.90
2022-12-24T18:56:55.065Z,46.50
2022-12-24T18:59:40.703Z,46.77
2022-12-24T19:02:26.696Z,45.80
2022-12-24T19:05:15.039Z,46.27
2022-12-24T19:08:02.026Z,46.58
2022-12-24T19:10:56.642Z,45.70
2022-12-24T19:13:46.896Z,44.45
2022-12-24T19:16:37.437Z,44.08
2022-12-24T19:19:24.520Z,44.60
2022-12-24T19:22:10.072Z,43.05
2022-12-24T19:24:58.926Z,40.83
2022-12-24T19:27:44.352Z,41.67
2022-12-24T19:30:29.725Z,40.42
2022-12-24T19:33:15.209Z,40.13
2022-12-24T19:36:08.864Z,39.72
2022-12-24T19:38:56.410Z,39.08
2022-12-24T19:41:42.201Z,37.97
2022-12-24T19:44:28.197Z,37.55
2022-12-24T19:47:13.639Z,35.45
2022-12-24T19:49:59.303Z,36.53
2022-12-24T19:52:45.750Z,36.97
2022-12-24T19:55:31.234Z,36.43
2022-12-24T19:58:16.838Z,36.03
2022-12-24T20:01:15.293Z,35.72
2022-12-24T20:04:03.146Z,35.53
2022-12-24T20:06:51.256Z,33.78
2022-12-24T20:09:41.751Z,33.45
2022-12-24T20:12:27.373Z,33.60
2022-12-24T20:15:13.149Z,33.60
2022-12-24T20:17:59.540Z,32.80
2022-12-24T20:20:45.273Z,33.17
2022-12-24T20:23:31.577Z,32.65
2022-12-24T20:26:19.345Z,32.40
2022-12-24T20:29:08.515Z,31.33
2022-12-24T20:31:54.245Z,32.15
2022-12-24T20:34:40.312Z,31.92
2022-12-24T20:37:26.043Z,30.40
2022-12-24T20:40:11.678Z,30.58
2022-12-24T20:42:57.222Z,29.40
2022-12-24T20:45:49.461Z,29.80
2022-12-24T20:48:35.805Z,30.13
2022-12-24T20:51:27.135Z,28.90
2022-12-24T20:54:13.061Z,28.97
2022-12-24T20:56:59.028Z,29.65
2022-12-24T20:59:44.660Z,28.48
2022-12-24T21:02:30.312Z,27.92
2022-12-24T21:05:16.220Z,28.30
2022-12-24T21:08:01.932Z,27.23
2022-12-24T21:10:47.542Z,27.83
2022-12-24T21:13:33.018Z,27.35
2022-12-24T21:16:18.523Z,26.48
2022-12-24T21:19:05.611Z,26.88
2022-12-24T21:21:51.922Z,26.10
2022-12-24T21:24:37.309Z,26.57
2022-12-24T21:27:22.823Z,25.33
2022-12-24T21:30:09.185Z,25.08
2022-12-24T21:32:54.627Z,24.23
2022-12-24T21:35:40.270Z,24.10
2022-12-24T21:38:26.644Z,23.92
2022-12-24T21:41:15.724Z,23.88
2022-12-24T21:44:02.265Z,23.65
2022-12-24T21:46:47.974Z,23.67
2022-12-24T21:49:52.898Z,22.52
2022-12-24T21:52:38.323Z,22.52
2022-12-24T21:55:23.940Z,22.25
2022-12-24T21:58:09.475Z,22.23
2022-12-24T22:00:54.936Z,20.70
2022-12-24T22:03:40.381Z,21.47
2022-12-24T22:06:46.166Z,21.38
2022-12-24T22:09:50.565Z,21.17
2022-12-24T22:12:36.430Z,20.17
2022-12-24T22:15:22.771Z,19.93
2022-12-24T22:18:08.628Z,19.75
2022-12-24T22:20:55.495Z,19.23
2022-12-24T22:23:42.707Z,19.13
2022-12-24T22:26:28.648Z,18.88
2022-12-24T22:29:14.736Z,18.17
2022-12-24T22:32:00.224Z,18.42
2022-12-24T22:34:46.581Z,18.17
2022-12-24T22:37:32.305Z,17.60
2022-12-24T22:40:17.759Z,17.60
2022-12-24T22:43:03.339Z,17.03
2022-12-24T22:45:48.922Z,17.00
2022-12-24T22:48:38.898Z,17.83
2022-12-24T22:51:24.558Z,17.25
2022-12-24T22:54:10.133Z,17.10
2022-12-24T22:56:55.713Z,16.67
2022-12-24T22:59:41.142Z,17.45
2022-12-24T23:02:28.606Z,17.00
2022-12-24T23:05:15.085Z,19.30
2022-12-24T23:08:01.196Z,15.80
2022-12-24T23:10:46.797Z,16.85
2022-12-24T23:13:50.539Z,15.80
2022-12-24T23:16:36.480Z,15.85
2022-12-24T23:19:22.170Z,15.45
2022-12-24T23:22:07.915Z,15.02
2022-12-24T23:24:53.322Z,14.80
2022-12-24T23:27:39.177Z,14.80
2022-12-24T23:30:24.743Z,14.65
2022-12-24T23:33:10.244Z,14.48
2022-12-24T23:35:55.881Z,13.38
2022-12-24T23:38:41.662Z,14.23
2022-12-24T23:41:27.379Z,14.37
2022-12-24T23:44:13.026Z,13.25
2022-12-24T23:46:58.747Z,12.80
2022-12-24T23:49:44.634Z,13.27
2022-12-24T23:52:30.295Z,13.38
2022-12-24T23:55:16.487Z,13.00
2022-12-24T23:58:02.279Z,13.43
